KFNT

Bishop International Airport

Flint, Michigan, USA
KFNT 181120Z 1812/1912 30005KT 4SM BR BKN008 OVC022 FM181400 30007KT P6SM BKN025 FM181900 33008KT P6SM SCT040 BKN200 FM190100 03013KT P6SM SCT025 OVC100 FM190700 06013KT 2SM -SN OVC015
Issued Valid From Valid To
Jan-18 @ 11:20 UTC
(22 minutes ago)
Jan-18 @ 12:00 UTC
(in 18 minutes)
Jan-19 @ 12:00 UTC
(in 24 hours)
Jan-18 @ 12:00 to Jan-18 @ 14:00
KFNT 181120Z 1812/1912 30005KT 4SM BR BKN008 OVC022
Wind Visibility Clouds Conditions
300° at 5 knots 4 miles
  • Broken at 800' AGL
  • Overcast at 2,200' AGL
  • Mist
From Jan-18 @ 14:00 to Jan-18 @ 19:00
FM181400 30007KT P6SM BKN025
Wind Visibility Clouds
300° at 7 knots Greater than 6 miles
  • Broken at 2,500' AGL
From Jan-18 @ 19:00 to Jan-19 @ 01:00
FM181900 33008KT P6SM SCT040 BKN200
Wind Visibility Clouds
330° at 8 knots Greater than 6 miles
  • Scattered at 4,000' AGL
  • Broken at 20,000' AGL
From Jan-19 @ 01:00 to Jan-19 @ 07:00
FM190100 03013KT P6SM SCT025 OVC100
Wind Visibility Clouds
30° at 13 knots Greater than 6 miles
  • Scattered at 2,500' AGL
  • Overcast at 10,000' AGL
From Jan-19 @ 07:00 to Jan-19 @ 12:00
FM190700 06013KT 2SM -SN OVC015
Wind Visibility Clouds Conditions
60° at 13 knots 2 miles
  • Overcast at 1,500' AGL
  • Light Snow
KFNT 181120Z 1812/1912 30005KT 4SM BR BKN008 OVC022 FM181400 30007KT P6SM BKN025 FM181900 33008KT P6SM SCT040 BKN200 FM190100 03013KT P6SM SCT025 OVC100 FM190700 06013KT 2SM -SN OVC015
Issued Jan-18 @ 11:20 UTC
(22 minutes ago)
Valid From Jan-18 @ 12:00 UTC
(in 18 minutes)
Valid To Jan-19 @ 12:00 UTC
(in 24 hours)
Jan-18 @ 12:00 - Jan-18 @ 14:00
Wind Visibility
300° at 5 knots 4 miles
Clouds
  • Broken at 800' AGL
  • Overcast at 2,200' AGL
Conditions
  • Mist
From Jan-18 @ 14:00 - Jan-18 @ 19:00
Wind Visibility
300° at 7 knots Greater than 6 miles
Clouds
  • Broken at 2,500' AGL
From Jan-18 @ 19:00 - Jan-19 @ 01:00
Wind Visibility
330° at 8 knots Greater than 6 miles
Clouds
  • Scattered at 4,000' AGL
  • Broken at 20,000' AGL
From Jan-19 @ 01:00 - Jan-19 @ 07:00
Wind Visibility
30° at 13 knots Greater than 6 miles
Clouds
  • Scattered at 2,500' AGL
  • Overcast at 10,000' AGL
From Jan-19 @ 07:00 - Jan-19 @ 12:00
Wind Visibility
60° at 13 knots 2 miles
Clouds
  • Overcast at 1,500' AGL
Conditions
  • Light Snow